createdAt,value
2018-06-11T00:00:59.771Z,10.40
2018-06-11T00:03:28.000Z,16.93
2018-06-11T00:05:56.147Z,16.80
2018-06-11T00:08:24.314Z,12.30
2018-06-11T00:10:53.347Z,10.40
2018-06-11T00:13:21.525Z,12.03
2018-06-11T00:15:49.692Z,9.00
2018-06-11T00:18:17.858Z,11.87
2018-06-11T00:20:45.962Z,7.00
2018-06-11T00:23:14.131Z,8.37
2018-06-11T00:25:42.232Z,7.33
2018-06-11T00:28:10.362Z,10.00
2018-06-11T00:30:38.457Z,11.83
2018-06-11T00:33:06.585Z,9.80
2018-06-11T00:35:34.742Z,11.47
2018-06-11T00:38:02.887Z,8.67
2018-06-11T00:40:31.055Z,9.90
2018-06-11T00:42:59.176Z,10.60
2018-06-11T00:45:27.316Z,7.43
2018-06-11T00:47:55.428Z,12.73
2018-06-11T00:50:23.642Z,9.40
2018-06-11T00:52:51.783Z,7.23
2018-06-11T00:55:19.918Z,8.67
2018-06-11T00:57:48.102Z,11.67
2018-06-11T01:00:16.278Z,8.00
2018-06-11T01:02:44.473Z,16.80
2018-06-11T01:05:12.637Z,13.63
2018-06-11T01:07:40.770Z,12.67
2018-06-11T01:10:08.915Z,9.47
2018-06-11T01:12:37.064Z,7.77
2018-06-11T01:15:05.294Z,13.10
2018-06-11T01:17:33.398Z,10.73
2018-06-11T01:20:01.569Z,10.93
2018-06-11T01:22:29.726Z,7.77
2018-06-11T01:24:57.902Z,9.67
2018-06-11T01:27:26.058Z,13.70
2018-06-11T01:29:53.937Z,10.93
2018-06-11T01:32:22.085Z,10.50
2018-06-11T01:34:50.211Z,11.00
2018-06-11T01:37:18.545Z,9.67
2018-06-11T01:39:46.697Z,12.97
2018-06-11T01:42:14.789Z,12.03
2018-06-11T01:44:42.873Z,12.03
2018-06-11T01:47:10.745Z,8.10
2018-06-11T01:49:38.849Z,8.87
2018-06-11T01:52:06.964Z,9.73
2018-06-11T01:54:35.104Z,9.53
2018-06-11T01:57:03.630Z,10.23
2018-06-11T01:59:31.502Z,10.53
2018-06-11T02:01:59.684Z,9.43
2018-06-11T02:04:27.590Z,10.13
2018-06-11T02:06:55.732Z,10.47
2018-06-11T02:09:23.861Z,9.40
2018-06-11T02:11:51.997Z,14.33
2018-06-11T02:14:20.144Z,10.73
2018-06-11T02:16:48.044Z,9.10
2018-06-11T02:19:16.209Z,11.07
2018-06-11T02:21:44.361Z,11.57
2018-06-11T02:24:12.480Z,8.77
2018-06-11T02:26:40.636Z,10.10
2018-06-11T02:29:08.787Z,14.30
2018-06-11T02:31:36.953Z,12.67
2018-06-11T02:34:04.936Z,15.13
2018-06-11T02:36:33.148Z,11.10
2018-06-11T02:39:01.285Z,12.80
2018-06-11T02:41:29.369Z,11.63
2018-06-11T02:43:57.590Z,11.83
2018-06-11T02:46:25.684Z,12.47
2018-06-11T02:48:53.786Z,8.97
2018-06-11T02:51:21.938Z,15.37
2018-06-11T02:53:49.823Z,9.70
2018-06-11T02:56:17.660Z,12.33
2018-06-11T02:58:45.740Z,11.63
2018-06-11T03:01:13.877Z,9.13
2018-06-11T03:03:41.963Z,10.53
2018-06-11T03:06:10.053Z,10.27
2018-06-11T03:08:38.158Z,9.93
2018-06-11T03:11:06.421Z,13.23
2018-06-11T03:13:34.476Z,18.03
2018-06-11T03:16:02.638Z,13.27
2018-06-11T03:18:30.803Z,15.77
2018-06-11T03:20:58.930Z,13.47
2018-06-11T03:23:27.125Z,12.13
2018-06-11T03:25:55.271Z,12.67
2018-06-11T03:28:23.414Z,10.13
2018-06-11T03:30:51.334Z,12.00
2018-06-11T03:33:19.542Z,16.50
2018-06-11T03:35:47.792Z,16.47
2018-06-11T03:38:15.926Z,14.17
2018-06-11T03:40:44.080Z,14.03
2018-06-11T03:43:12.857Z,10.23
2018-06-11T03:45:41.050Z,12.67
2018-06-11T03:48:09.210Z,12.00
2018-06-11T03:50:37.417Z,12.30
2018-06-11T03:53:05.683Z,10.70
2018-06-11T03:55:33.833Z,16.13
2018-06-11T03:58:01.918Z,14.67
2018-06-11T04:00:30.059Z,15.43
2018-06-11T04:02:58.220Z,15.87
2018-06-11T04:05:26.569Z,12.07
2018-06-11T04:07:54.730Z,14.37
2018-06-11T04:10:22.992Z,14.07
2018-06-11T04:12:51.091Z,16.17
2018-06-11T04:15:19.177Z,11.33
2018-06-11T04:17:47.270Z,12.83
2018-06-11T04:20:15.387Z,15.00
2018-06-11T04:22:43.282Z,17.70
2018-06-11T04:25:11.506Z,16.67
2018-06-11T04:27:39.726Z,11.30
2018-06-11T04:30:07.895Z,14.87
2018-06-11T04:32:36.020Z,11.70
2018-06-11T04:35:04.208Z,13.50
2018-06-11T04:37:32.764Z,12.33
2018-06-11T04:40:00.852Z,12.93
2018-06-11T04:42:28.930Z,10.77
2018-06-11T04:44:57.084Z,14.20
2018-06-11T04:47:25.210Z,13.00
2018-06-11T04:49:53.729Z,13.07
2018-06-11T04:52:21.865Z,14.20
2018-06-11T04:54:50.673Z,11.90
2018-06-11T04:57:18.914Z,12.87
2018-06-11T04:59:46.974Z,14.57
2018-06-11T05:02:15.081Z,11.67
2018-06-11T05:04:42.915Z,16.37
2018-06-11T05:07:11.040Z,14.60
2018-06-11T05:09:39.141Z,23.47
2018-06-11T05:12:07.275Z,21.00
2018-06-11T05:14:35.450Z,11.83
2018-06-11T05:17:03.639Z,17.40
2018-06-11T05:19:31.804Z,13.67
2018-06-11T05:21:59.905Z,15.87
2018-06-11T05:24:28.081Z,15.70
2018-06-11T05:26:56.228Z,15.53
2018-06-11T05:29:24.389Z,13.60
2018-06-11T05:31:52.594Z,17.83
2018-06-11T05:34:20.704Z,15.17
2018-06-11T05:36:48.869Z,15.63
2018-06-11T05:39:17.020Z,17.13
2018-06-11T05:41:45.144Z,16.13
2018-06-11T05:44:13.287Z,11.57
2018-06-11T05:46:41.390Z,20.87
2018-06-11T05:49:09.258Z,12.73
2018-06-11T05:51:37.201Z,17.90
2018-06-11T05:54:05.885Z,16.20
2018-06-11T05:56:33.980Z,17.37
2018-06-11T05:59:02.154Z,11.33
2018-06-11T06:01:30.261Z,17.37
2018-06-11T06:03:58.360Z,15.97
2018-06-11T06:06:26.463Z,16.30
2018-06-11T06:08:54.582Z,12.43
2018-06-11T06:11:22.697Z,14.10
2018-06-11T06:13:50.890Z,17.47
2018-06-11T06:16:19.034Z,15.63
2018-06-11T06:18:47.180Z,14.03
2018-06-11T06:21:15.314Z,16.53
2018-06-11T06:23:43.493Z,12.23
2018-06-11T06:26:11.393Z,15.40
2018-06-11T06:28:39.516Z,20.67
2018-06-11T06:31:07.646Z,18.90
2018-06-11T06:33:35.838Z,19.13
2018-06-11T06:36:04.075Z,17.33
2018-06-11T06:38:33.181Z,21.77
2018-06-11T06:41:01.334Z,22.73
2018-06-11T06:43:29.545Z,23.23
2018-06-11T06:45:57.692Z,23.07
2018-06-11T06:48:25.861Z,17.90
2018-06-11T06:50:54.010Z,15.10
2018-06-11T06:53:22.165Z,14.57
2018-06-11T06:55:50.282Z,15.93
2018-06-11T06:58:18.379Z,17.77
2018-06-11T07:00:46.546Z,13.20
2018-06-11T07:03:14.657Z,16.67
2018-06-11T07:05:42.826Z,11.47
2018-06-11T07:08:10.955Z,11.40
2018-06-11T07:10:39.121Z,8.27
2018-06-11T07:13:07.345Z,14.80
2018-06-11T07:15:35.485Z,11.27
2018-06-11T07:18:03.625Z,12.90
2018-06-11T07:20:31.733Z,18.27
2018-06-11T07:22:59.992Z,17.67
2018-06-11T07:25:28.161Z,11.77
2018-06-11T07:27:56.073Z,15.83
2018-06-11T07:30:24.246Z,8.93
2018-06-11T07:32:52.417Z,13.80
2018-06-11T07:35:20.566Z,8.77
2018-06-11T07:37:48.702Z,14.27
2018-06-11T07:40:16.900Z,11.13
2018-06-11T07:42:45.015Z,12.90
2018-06-11T07:45:13.176Z,16.87
2018-06-11T07:47:41.343Z,12.60
2018-06-11T07:50:09.549Z,11.67
2018-06-11T07:52:37.669Z,12.57
2018-06-11T07:55:05.829Z,8.90
2018-06-11T07:57:33.962Z,10.50
2018-06-11T08:00:02.179Z,10.73
2018-06-11T08:02:30.306Z,14.67
2018-06-11T08:04:58.499Z,17.80
2018-06-11T08:07:26.761Z,9.53
2018-06-11T08:09:54.921Z,14.57
2018-06-11T08:12:23.089Z,11.37
2018-06-11T08:14:51.214Z,13.50
2018-06-11T08:17:19.478Z,16.37
2018-06-11T08:19:48.409Z,9.67
2018-06-11T08:22:16.582Z,7.17
2018-06-11T08:24:44.749Z,12.80
2018-06-11T08:27:12.848Z,11.23
2018-06-11T08:29:40.992Z,8.13
2018-06-11T08:32:09.167Z,10.57
2018-06-11T08:34:37.073Z,8.00
2018-06-11T08:37:05.350Z,8.57
2018-06-11T08:39:33.526Z,8.03
2018-06-11T08:42:01.650Z,9.33
2018-06-11T08:44:29.799Z,8.90
2018-06-11T08:46:57.964Z,5.97
2018-06-11T08:49:26.122Z,7.23
2018-06-11T08:51:54.272Z,8.30
2018-06-11T08:54:22.380Z,6.03
2018-06-11T08:56:50.503Z,6.33
2018-06-11T08:59:18.646Z,7.97
2018-06-11T09:01:46.815Z,8.60
2018-06-11T09:04:14.959Z,9.70
2018-06-11T09:06:43.118Z,10.13
2018-06-11T09:09:11.256Z,10.20
2018-06-11T09:11:39.365Z,9.83
2018-06-11T09:14:07.597Z,7.10
2018-06-11T09:16:35.750Z,5.77
2018-06-11T09:19:03.916Z,7.53
2018-06-11T09:21:32.009Z,6.80
2018-06-11T09:24:00.094Z,5.60
2018-06-11T09:26:28.194Z,4.60
2018-06-11T09:28:56.363Z,4.67
2018-06-11T09:31:24.486Z,5.37
2018-06-11T09:33:52.617Z,10.83
2018-06-11T09:36:20.524Z,7.23
2018-06-11T09:38:48.630Z,10.77
2018-06-11T09:41:16.782Z,6.97
2018-06-11T09:43:44.990Z,12.30
2018-06-11T09:46:13.153Z,5.43
2018-06-11T09:48:41.290Z,5.83
2018-06-11T09:51:09.464Z,6.47
2018-06-11T09:53:37.602Z,6.27
2018-06-11T09:56:05.531Z,5.73
2018-06-11T09:58:33.735Z,5.57
2018-06-11T10:01:01.898Z,4.30
2018-06-11T10:03:30.096Z,6.57
2018-06-11T10:05:57.996Z,4.13
2018-06-11T10:08:26.092Z,3.87
2018-06-11T10:10:54.317Z,4.00
2018-06-11T10:13:22.435Z,4.87
2018-06-11T10:15:50.596Z,4.63
2018-06-11T10:18:18.720Z,5.43
2018-06-11T10:20:46.818Z,6.80
2018-06-11T10:23:14.997Z,6.97
2018-06-11T10:25:43.106Z,4.30
2018-06-11T10:28:11.313Z,6.23
2018-06-11T10:30:39.459Z,4.00
2018-06-11T10:33:07.707Z,5.93
2018-06-11T10:35:35.891Z,7.60
2018-06-11T10:38:04.052Z,5.10
2018-06-11T10:40:32.210Z,7.57
2018-06-11T10:43:00.432Z,6.40
2018-06-11T10:45:28.584Z,4.20
2018-06-11T10:47:56.767Z,4.67
2018-06-11T10:50:25.023Z,5.13
2018-06-11T10:52:53.166Z,6.22
2018-06-11T10:55:21.291Z,6.30
2018-06-11T10:57:49.444Z,7.17
2018-06-11T11:00:17.661Z,5.37
2018-06-11T11:02:45.886Z,5.47
2018-06-11T11:05:14.002Z,5.30
2018-06-11T11:07:42.060Z,6.80
2018-06-11T11:10:10.192Z,4.57
2018-06-11T11:12:38.326Z,8.60
2018-06-11T11:15:06.458Z,6.77
2018-06-11T11:17:34.578Z,8.27
2018-06-11T11:20:02.823Z,5.70
2018-06-11T11:22:31.011Z,5.53
2018-06-11T11:24:59.161Z,4.97
2018-06-11T11:27:27.484Z,5.27
2018-06-11T11:29:55.693Z,3.87
2018-06-11T11:32:23.903Z,5.75
2018-06-11T11:34:52.054Z,4.63
2018-06-11T11:37:20.245Z,4.62
2018-06-11T11:39:48.422Z,5.03
2018-06-11T11:42:16.572Z,6.53
2018-06-11T11:44:44.689Z,7.33
2018-06-11T11:47:12.841Z,7.37
2018-06-11T11:49:41.093Z,4.50
2018-06-11T11:52:09.016Z,5.17
2018-06-11T11:54:37.141Z,4.75
2018-06-11T11:57:05.360Z,5.90
2018-06-11T11:59:33.507Z,9.08
2018-06-11T12:02:01.651Z,5.95
2018-06-11T12:04:29.774Z,7.03
2018-06-11T12:06:57.904Z,6.55
2018-06-11T12:09:26.169Z,4.03
2018-06-11T12:11:54.336Z,5.67
2018-06-11T12:14:22.472Z,5.95
2018-06-11T12:16:50.599Z,6.90
2018-06-11T12:19:18.755Z,7.28
2018-06-11T12:21:46.980Z,5.35
2018-06-11T12:24:15.152Z,4.55
2018-06-11T12:26:43.443Z,4.50
2018-06-11T12:29:11.621Z,5.07
2018-06-11T12:31:39.775Z,6.43
2018-06-11T12:34:07.955Z,7.13
2018-06-11T12:36:36.220Z,4.67
2018-06-11T12:39:06.910Z,13.50
2018-06-11T12:41:35.137Z,6.70
2018-06-11T12:44:03.832Z,4.45
2018-06-11T12:46:32.052Z,6.92
2018-06-11T12:49:00.259Z,6.27
2018-06-11T12:51:28.393Z,4.72
2018-06-11T12:53:56.553Z,6.12
2018-06-11T12:56:24.693Z,4.25
2018-06-11T12:58:52.831Z,12.23
2018-06-11T13:01:20.727Z,7.47
2018-06-11T13:03:48.851Z,6.65
2018-06-11T13:06:16.955Z,7.30
2018-06-11T13:08:45.085Z,7.70
2018-06-11T13:11:13.200Z,7.53
2018-06-11T13:13:41.056Z,5.07
2018-06-11T13:16:10.660Z,6.77
2018-06-11T13:18:38.745Z,4.97
2018-06-11T13:21:06.877Z,7.87
2018-06-11T13:23:34.996Z,7.87
2018-06-11T13:26:03.188Z,8.33
2018-06-11T13:28:31.316Z,8.23
2018-06-11T13:30:59.496Z,6.93
2018-06-11T13:33:27.619Z,5.83
2018-06-11T13:35:55.754Z,7.63
2018-06-11T13:38:23.891Z,5.40
2018-06-11T13:40:52.069Z,7.20
2018-06-11T13:43:20.182Z,5.57
2018-06-11T13:45:48.318Z,5.93
2018-06-11T13:48:16.457Z,9.33
2018-06-11T13:50:44.650Z,5.20
2018-06-11T13:53:12.779Z,6.40
2018-06-11T13:55:40.988Z,5.60
2018-06-11T13:58:09.478Z,7.10
2018-06-11T14:00:37.583Z,5.87
2018-06-11T14:03:05.745Z,6.55
2018-06-11T14:05:33.908Z,8.83
2018-06-11T14:08:02.375Z,7.87
2018-06-11T14:10:30.498Z,6.97
2018-06-11T14:12:58.627Z,6.33
2018-06-11T14:15:26.771Z,6.30
2018-06-11T14:17:54.941Z,6.47
2018-06-11T14:20:23.094Z,8.50
2018-06-11T14:22:51.296Z,6.80
2018-06-11T14:25:19.475Z,9.50
2018-06-11T14:27:48.379Z,8.37
2018-06-11T14:30:16.516Z,7.07
2018-06-11T14:32:44.786Z,8.17
2018-06-11T14:35:12.968Z,10.17
2018-06-11T14:37:41.454Z,8.33
2018-06-11T14:40:09.627Z,6.30
2018-06-11T14:42:37.858Z,9.00
2018-06-11T14:45:06.109Z,8.03
2018-06-11T14:47:34.264Z,9.17
2018-06-11T14:50:02.412Z,7.00
2018-06-11T14:52:30.576Z,6.40
2018-06-11T14:54:58.755Z,8.17
2018-06-11T14:57:26.929Z,9.70
2018-06-11T14:59:55.144Z,7.97
2018-06-11T15:02:23.336Z,10.40
2018-06-11T15:04:51.494Z,7.70
2018-06-11T15:07:19.990Z,12.80
2018-06-11T15:09:48.172Z,12.77
2018-06-11T15:12:16.585Z,9.27
2018-06-11T15:14:44.713Z,14.23
2018-06-11T15:17:12.842Z,9.77
2018-06-11T15:19:40.994Z,10.57
2018-06-11T15:22:09.192Z,7.90
2018-06-11T15:24:37.428Z,9.33
2018-06-11T15:27:05.550Z,9.90
2018-06-11T15:29:33.744Z,9.53
2018-06-11T15:32:02.009Z,9.67
2018-06-11T15:34:30.674Z,9.27
2018-06-11T15:36:58.864Z,9.60
2018-06-11T15:39:26.799Z,12.73
2018-06-11T15:41:55.620Z,9.03
2018-06-11T15:44:23.764Z,8.40
2018-06-11T15:46:52.025Z,11.10
2018-06-11T15:49:20.226Z,9.43
2018-06-11T15:51:48.419Z,9.30
2018-06-11T15:54:16.589Z,9.07
2018-06-11T15:56:44.803Z,9.07
2018-06-11T15:59:13.076Z,9.57
2018-06-11T16:01:41.207Z,11.13
2018-06-11T16:04:09.395Z,7.73
2018-06-11T16:06:37.549Z,7.70
2018-06-11T16:09:07.326Z,7.10
2018-06-11T16:11:35.543Z,7.70
2018-06-11T16:14:03.481Z,7.60
2018-06-11T16:16:32.600Z,8.37
2018-06-11T16:19:03.312Z,7.20
2018-06-11T16:21:32.603Z,7.43
2018-06-11T16:24:05.980Z,10.50
2018-06-11T16:26:36.782Z,7.63
2018-06-11T16:29:05.046Z,7.70
2018-06-11T16:31:33.351Z,8.30
2018-06-11T16:34:01.838Z,7.83
2018-06-11T16:36:30.840Z,10.50
2018-06-11T16:39:00.244Z,8.70
2018-06-11T16:41:30.258Z,11.23
2018-06-11T16:44:00.277Z,7.50
2018-06-11T16:46:29.911Z,9.13
2018-06-11T16:48:58.140Z,9.40
2018-06-11T16:51:26.492Z,8.30
2018-06-11T16:53:54.802Z,8.63
2018-06-11T16:56:22.979Z,7.33
2018-06-11T16:58:51.484Z,9.10
2018-06-11T17:01:20.372Z,12.03
2018-06-11T17:03:48.602Z,7.70
2018-06-11T17:06:16.964Z,7.87
2018-06-11T17:08:45.161Z,7.73
2018-06-11T17:11:13.365Z,8.50
2018-06-11T17:13:41.580Z,8.30
2018-06-11T17:16:09.744Z,11.57
2018-06-11T17:18:37.920Z,12.30
2018-06-11T17:21:06.206Z,11.10
2018-06-11T17:23:34.410Z,9.83
2018-06-11T17:26:02.535Z,8.67
2018-06-11T17:28:31.569Z,13.23
2018-06-11T17:31:00.176Z,8.97
2018-06-11T17:33:28.542Z,9.50
2018-06-11T17:35:57.013Z,8.00
2018-06-11T17:38:25.487Z,8.50
2018-06-11T17:40:53.669Z,8.77
2018-06-11T17:43:22.107Z,15.00
2018-06-11T17:45:51.477Z,10.00
2018-06-11T17:48:19.967Z,10.27
2018-06-11T17:50:49.872Z,8.43
2018-06-11T17:53:18.197Z,10.40
2018-06-11T17:55:46.322Z,11.77
2018-06-11T17:58:15.084Z,8.80
2018-06-11T18:00:43.674Z,13.53
2018-06-11T18:03:11.914Z,10.17
2018-06-11T18:05:40.575Z,10.83
2018-06-11T18:08:08.798Z,13.03
2018-06-11T18:10:37.240Z,13.93
2018-06-11T18:13:06.248Z,10.20
2018-06-11T18:15:34.639Z,11.30
2018-06-11T18:18:03.183Z,10.30
2018-06-11T18:20:31.495Z,9.07
2018-06-11T18:23:00.077Z,10.23
2018-06-11T18:25:28.315Z,10.90
2018-06-11T18:27:57.230Z,11.70
2018-06-11T18:30:25.136Z,14.07
2018-06-11T18:32:53.366Z,11.93
2018-06-11T18:35:21.540Z,8.63
2018-06-11T18:37:50.125Z,10.93
2018-06-11T18:40:18.237Z,9.80
2018-06-11T18:42:46.385Z,10.87
2018-06-11T18:45:14.548Z,10.97
2018-06-11T18:47:42.715Z,10.87
2018-06-11T18:50:10.796Z,13.83
2018-06-11T18:52:39.064Z,13.60
2018-06-11T18:55:07.323Z,11.47
2018-06-11T18:57:35.626Z,10.27
2018-06-11T19:00:05.838Z,9.40
2018-06-11T19:02:34.154Z,9.67
2018-06-11T19:05:02.426Z,9.40
2018-06-11T19:07:30.625Z,10.30
2018-06-11T19:09:58.755Z,11.43
2018-06-11T19:12:26.956Z,11.47
2018-06-11T19:14:55.241Z,14.10
2018-06-11T19:17:23.369Z,13.47
2018-06-11T19:19:51.558Z,9.97
2018-06-11T19:22:19.726Z,14.07
2018-06-11T19:24:47.703Z,17.37
2018-06-11T19:27:16.116Z,12.20
2018-06-11T19:29:44.267Z,10.90
2018-06-11T19:32:12.401Z,13.20
2018-06-11T19:34:40.743Z,15.30
2018-06-11T19:37:09.100Z,16.67
2018-06-11T19:39:37.717Z,9.90
2018-06-11T19:42:07.064Z,11.27
2018-06-11T19:44:35.197Z,11.67
2018-06-11T19:47:03.563Z,12.97
2018-06-11T19:49:31.834Z,12.57
2018-06-11T19:52:00.243Z,11.67
2018-06-11T19:54:28.414Z,10.93
2018-06-11T19:56:56.927Z,11.80
2018-06-11T19:59:25.088Z,11.80
2018-06-11T20:01:53.197Z,9.67
2018-06-11T20:04:21.399Z,9.80
2018-06-11T20:06:49.528Z,10.33
2018-06-11T20:09:17.646Z,9.40
2018-06-11T20:11:45.807Z,10.37
2018-06-11T20:14:13.975Z,11.93
2018-06-11T20:16:42.812Z,11.43
2018-06-11T20:19:10.989Z,10.20
2018-06-11T20:21:39.192Z,17.50
2018-06-11T20:24:07.100Z,10.47
2018-06-11T20:26:35.237Z,10.77
2018-06-11T20:29:03.475Z,10.57
2018-06-11T20:31:31.635Z,10.03
2018-06-11T20:33:59.859Z,11.57
2018-06-11T20:36:32.679Z,11.17
2018-06-11T20:39:01.008Z,11.63
2018-06-11T20:41:28.965Z,11.40
2018-06-11T20:43:58.299Z,12.07
2018-06-11T20:46:26.733Z,11.23
2018-06-11T20:48:54.959Z,13.03
2018-06-11T20:51:23.143Z,14.33
2018-06-11T20:53:51.345Z,13.80
2018-06-11T20:56:35.368Z,10.77
2018-06-11T20:59:33.562Z,13.03
2018-06-11T21:02:02.002Z,14.00
2018-06-11T21:04:30.178Z,10.43
2018-06-11T21:06:58.356Z,11.13
2018-06-11T21:09:26.521Z,15.53
2018-06-11T21:11:54.486Z,11.43
2018-06-11T21:14:22.936Z,15.77
2018-06-11T21:16:51.154Z,12.70
2018-06-11T21:19:19.584Z,11.00
2018-06-11T21:21:47.778Z,11.73
2018-06-11T21:24:15.979Z,13.63
2018-06-11T21:26:44.141Z,12.47
2018-06-11T21:29:12.363Z,11.57
2018-06-11T21:31:40.571Z,11.67
2018-06-11T21:34:08.751Z,11.57
2018-06-11T21:36:36.915Z,12.17
2018-06-11T21:39:07.488Z,11.40
2018-06-11T21:41:35.700Z,11.63
2018-06-11T21:44:03.996Z,11.70
2018-06-11T21:46:32.167Z,11.80
2018-06-11T21:49:00.432Z,11.47
2018-06-11T21:51:28.632Z,11.13
2018-06-11T21:53:56.845Z,11.70
2018-06-11T21:56:25.844Z,14.70
2018-06-11T21:58:54.028Z,13.00
2018-06-11T22:01:22.197Z,15.23
2018-06-11T22:03:50.457Z,13.07
2018-06-11T22:06:18.489Z,12.87
2018-06-11T22:08:46.675Z,11.67
2018-06-11T22:11:14.774Z,17.43
2018-06-11T22:13:42.912Z,14.60
2018-06-11T22:16:11.157Z,14.73
2018-06-11T22:18:39.341Z,12.53
2018-06-11T22:21:07.527Z,13.97
2018-06-11T22:23:35.711Z,14.00
2018-06-11T22:26:03.910Z,13.07
2018-06-11T22:28:32.095Z,12.23
2018-06-11T22:31:00.232Z,15.37
2018-06-11T22:33:28.364Z,15.00
2018-06-11T22:35:56.526Z,14.30
2018-06-11T22:38:24.657Z,12.83
2018-06-11T22:40:52.826Z,16.03
2018-06-11T22:43:20.996Z,11.53
2018-06-11T22:45:49.169Z,13.50
2018-06-11T22:48:17.331Z,12.83
2018-06-11T22:50:45.426Z,13.73
2018-06-11T22:53:13.691Z,17.70
2018-06-11T22:55:41.865Z,12.37
2018-06-11T22:58:10.270Z,11.93
2018-06-11T23:00:38.402Z,13.80
2018-06-11T23:03:06.605Z,14.20
2018-06-11T23:05:34.728Z,12.70
2018-06-11T23:08:02.858Z,14.73
2018-06-11T23:10:31.757Z,15.03
2018-06-11T23:12:59.999Z,12.73
2018-06-11T23:15:28.195Z,15.60
2018-06-11T23:17:56.310Z,18.07
2018-06-11T23:20:24.427Z,12.97
2018-06-11T23:22:52.567Z,16.13
2018-06-11T23:25:21.175Z,14.00
2018-06-11T23:27:49.253Z,13.23
2018-06-11T23:30:17.369Z,15.73
2018-06-11T23:32:45.534Z,15.13
2018-06-11T23:35:13.704Z,16.77
2018-06-11T23:37:41.958Z,15.50
2018-06-11T23:40:10.141Z,14.03
2018-06-11T23:42:38.285Z,17.13
2018-06-11T23:45:06.443Z,15.17
2018-06-11T23:47:34.569Z,13.60
2018-06-11T23:50:02.836Z,14.20
2018-06-11T23:52:31.008Z,14.17
2018-06-11T23:54:59.203Z,21.53
2018-06-11T23:57:27.413Z,15.60
2018-06-11T23:59:55.581Z,16.77
